Terminal Aerodrome Forecast
Issued by NWS

Home | Current Version | Previous Version | Text Only | Print | Product List | Glossary On
Versions: 1 2 3 4 5 6 7 8 9 10 11 12 13 14 15 16 17 18 19 20 21
086
FTUS43 KGRR 260541
TAFJXN
TAF
KJXN 260541Z 2606/2706 15012KT P6SM SCT050 BKN120
     FM260800 28012G22KT 4SM -SHRA BR OVC025
      TEMPO 2609/2613 4SM -SHRA BR OVC008
     FM261400 27014G24KT P6SM SCT035
     FM261600 26020G30KT P6SM SCT060
     FM270000 26012G20KT P6SM SCT060=

USA.gov is the U.S. government's official web portal to all federal, state and local government web resources and services.